Time;durP1;ratioP1;P1;durP2;ratioP2;P2;SDS_P1;SDS_P2;PMS_P1;PMS_P2;Temp;Humidity;BMP_temperature;BMP_pressure;BME280_temperature;BME280_humidity;BME280_pressure;Samples;Min_cycle;Max_cycle;Signal;HPM_P1;HPM_P2
2021/05/01 00:00:12;;;;;;;16.50;12.77;;;;;;;7.79;58.34;99096.81;5014010;28;20460;-61
2021/05/01 00:02:38;;;;;;;16.27;12.32;;;;;;;7.86;57.25;99097.53;5014384;28;20116;-61
2021/05/01 00:05:03;;;;;;;16.45;12.40;;;;;;;7.84;57.72;99096.94;5013868;28;20476;-61
2021/05/01 00:07:29;;;;;;;17.00;12.73;;;;;;;7.80;58.15;99082.41;5014124;28;20049;-61
2021/05/01 00:09:54;;;;;;;17.52;14.05;;;;;;;7.70;57.97;99084.81;5014701;28;20033;-61
2021/05/01 00:12:20;;;;;;;19.90;12.10;;;;;;;7.74;57.73;99084.16;5014091;28;20464;-61
2021/05/01 00:14:45;;;;;;;18.35;13.43;;;;;;;7.73;57.97;99081.69;5013887;28;20029;-61
2021/05/01 00:17:11;;;;;;;18.58;14.00;;;;;;;7.77;57.98;99085.56;5013852;28;20041;-61
2021/05/01 00:19:36;;;;;;;21.00;14.30;;;;;;;7.66;58.65;99076.47;5014204;28;20041;-61
2021/05/01 00:22:01;;;;;;;16.50;13.93;;;;;;;7.63;59.55;99084.09;4995980;28;20112;-61
2021/05/01 00:24:27;;;;;;;20.80;15.15;;;;;;;7.63;59.99;99084.91;4996554;28;20539;-61
2021/05/01 00:26:52;;;;;;;19.80;16.05;;;;;;;7.57;60.54;99083.97;4996239;28;20038;-61
2021/05/01 00:29:18;;;;;;;20.35;15.65;;;;;;;7.53;61.37;99080.13;5014041;28;20030;-61
2021/05/01 00:31:44;;;;;;;17.60;15.30;;;;;;;7.43;62.19;99087.84;5013658;28;20034;-61
2021/05/01 00:34:09;;;;;;;18.83;16.83;;;;;;;7.42;62.90;99083.56;5013856;28;20033;-61
2021/05/01 00:36:34;;;;;;;22.90;16.95;;;;;;;7.42;63.07;99077.41;5013350;28;20037;-61
2021/05/01 00:39:00;;;;;;;18.77;15.45;;;;;;;7.38;63.09;99087.72;5013997;28;20400;-61
2021/05/01 00:41:25;;;;;;;20.35;17.20;;;;;;;7.36;64.30;99081.78;4995786;28;20034;-61
2021/05/01 00:43:51;;;;;;;19.38;16.77;;;;;;;7.35;64.29;99085.50;4996201;28;20492;-61
2021/05/01 00:46:16;;;;;;;21.90;18.48;;;;;;;7.29;65.19;99089.06;5013132;28;20041;-61
2021/05/01 00:48:42;;;;;;;24.90;18.77;;;;;;;7.29;66.31;99083.75;4996093;28;20022;-61
2021/05/01 00:51:07;;;;;;;23.92;19.17;;;;;;;7.26;66.27;99082.34;5013234;28;20444;-62
2021/05/01 00:53:33;;;;;;;22.48;19.70;;;;;;;7.24;67.27;99075.56;5013724;28;20022;-61
2021/05/01 00:55:59;;;;;;;23.73;21.17;;;;;;;7.12;68.13;99079.00;5013150;28;20030;-61
2021/05/01 00:58:25;;;;;;;25.80;21.23;;;;;;;7.05;69.06;99078.28;5013495;28;20025;-61
2021/05/01 01:03:15;;;;;;;24.30;21.65;;;;;;;6.99;69.17;99076.50;5013483;28;20026;-61
2021/05/01 01:05:41;;;;;;;23.95;21.33;;;;;;;7.01;69.10;99070.94;5013300;28;20038;-60
2021/05/01 01:08:06;;;;;;;24.48;21.88;;;;;;;6.94;69.68;99073.69;5011592;28;20439;-61
2021/05/01 01:10:31;;;;;;;26.92;23.30;;;;;;;6.88;69.62;99070.06;4995124;28;20045;-61
2021/05/01 01:12:57;;;;;;;25.73;21.75;;;;;;;6.82;69.70;99070.16;4995797;28;20033;-61
2021/05/01 01:15:29;;;;;;;29.75;22.65;;;;;;;6.73;70.49;99068.81;5011499;28;20038;-61
2021/05/01 01:17:55;;;;;;;26.67;22.55;;;;;;;6.66;70.81;99069.69;5013243;28;20062;-61
2021/05/01 01:20:20;;;;;;;25.00;22.30;;;;;;;6.59;71.14;99063.63;5013076;28;20738;-61
2021/05/01 01:22:46;;;;;;;28.58;23.55;;;;;;;6.50;71.65;99064.94;5013183;28;20036;-61
2021/05/01 01:25:12;;;;;;;27.10;24.00;;;;;;;6.53;71.83;99061.00;5012462;28;20037;-61
2021/05/01 01:27:38;;;;;;;27.08;24.15;;;;;;;6.46;72.87;99074.38;4995418;28;20029;-61
2021/05/01 01:30:05;;;;;;;27.15;24.10;;;;;;;6.44;72.77;99076.44;4995099;28;20113;-61
2021/05/01 01:32:31;;;;;;;30.58;23.20;;;;;;;6.44;72.48;99087.09;5012877;28;20133;-61
2021/05/01 01:34:56;;;;;;;27.42;24.40;;;;;;;6.45;73.13;99073.56;5012968;28;20101;-61
2021/05/01 01:37:22;;;;;;;27.67;24.67;;;;;;;6.55;72.97;99073.06;4994852;28;20041;-61
2021/05/01 01:39:47;;;;;;;29.40;25.95;;;;;;;6.60;73.09;99075.88;5013061;28;20427;-61
2021/05/01 01:42:12;;;;;;;28.55;24.48;;;;;;;6.63;73.69;99072.78;5012383;28;20038;-61
2021/05/01 01:44:38;;;;;;;30.52;25.95;;;;;;;6.59;73.89;99066.28;5013104;28;20476;-61
2021/05/01 01:47:03;;;;;;;28.65;25.23;;;;;;;6.60;73.22;99070.56;5012422;28;20104;-61
2021/05/01 01:49:29;;;;;;;30.50;25.08;;;;;;;6.67;73.30;99065.97;5013171;28;20029;-61
2021/05/01 01:51:54;;;;;;;28.85;23.70;;;;;;;6.75;73.00;99072.06;5012608;28;20452;-61
2021/05/01 01:54:20;;;;;;;27.48;24.42;;;;;;;6.73;73.13;99079.47;5013024;28;20033;-61
2021/05/01 01:56:45;;;;;;;30.60;24.23;;;;;;;6.72;73.18;99072.50;5012440;28;20049;-61
2021/05/01 01:59:10;;;;;;;26.58;23.77;;;;;;;6.63;73.52;99080.75;5011816;28;20037;-61
2021/05/01 02:01:36;;;;;;;26.83;23.92;;;;;;;6.60;73.21;99085.72;5012453;28;20038;-61
2021/05/01 02:04:01;;;;;;;27.30;22.65;;;;;;;6.60;73.68;99081.22;5013134;28;20026;-61
2021/05/01 02:06:27;;;;;;;28.98;24.42;;;;;;;6.53;73.38;99085.78;5012040;28;20226;-61
2021/05/01 02:08:52;;;;;;;29.50;24.75;;;;;;;6.38;74.40;99087.97;5012562;28;20077;-61
2021/05/01 02:11:18;;;;;;;26.95;23.77;;;;;;;6.40;73.70;99072.59;4994795;28;20057;-61
2021/05/01 02:13:43;;;;;;;32.00;26.27;;;;;;;6.27;74.73;99081.53;5012601;28;20457;-61
2021/05/01 02:16:09;;;;;;;30.10;24.23;;;;;;;6.33;74.80;99082.50;5012007;28;20096;-61
2021/05/01 02:18:34;;;;;;;30.40;26.00;;;;;;;6.32;74.76;99070.22;5012612;28;20037;-60
2021/05/01 02:21:00;;;;;;;28.88;25.67;;;;;;;6.29;74.95;99073.31;5015135;28;20061;-61
2021/05/01 02:23:25;;;;;;;28.35;24.60;;;;;;;6.30;74.42;99064.31;5016313;28;20034;-61
2021/05/01 02:25:51;;;;;;;30.27;27.02;;;;;;;6.32;75.44;99068.38;5015861;28;20140;-61
2021/05/01 02:28:18;;;;;;;31.92;26.67;;;;;;;6.37;75.59;99065.06;5016271;28;20037;-60
2021/05/01 02:30:43;;;;;;;27.80;24.88;;;;;;;6.30;76.18;99061.66;5015728;28;20133;-60
2021/05/01 02:33:09;;;;;;;30.55;26.13;;;;;;;6.27;75.57;99070.88;5016206;28;20052;-60
2021/05/01 02:35:34;;;;;;;29.60;26.20;;;;;;;6.12;75.97;99059.75;5015610;28;20049;-61
2021/05/01 02:38:00;;;;;;;32.67;27.00;;;;;;;6.05;76.58;99065.13;5015940;28;20088;-60
2021/05/01 02:40:30;;;;;;;29.05;25.83;;;;;;;5.98;76.39;99070.47;5015635;28;20038;-61
2021/05/01 02:42:55;;;;;;;32.17;26.67;;;;;;;5.81;76.55;99062.19;4999125;28;20449;-60
2021/05/01 02:45:21;;;;;;;34.42;28.45;;;;;;;5.85;77.77;99057.25;4997887;28;20041;-61
2021/05/01 02:47:47;;;;;;;34.97;29.45;;;;;;;5.92;77.91;99062.53;4998519;28;20033;-60
2021/05/01 02:50:13;;;;;;;34.95;28.73;;;;;;;5.98;78.14;99061.69;5015417;28;20087;-60
2021/05/01 02:52:38;;;;;;;34.65;29.42;;;;;;;5.89;77.59;99057.63;5015752;28;20049;-61
2021/05/01 02:55:04;;;;;;;32.20;27.63;;;;;;;5.90;77.40;99056.63;5015265;28;20026;-61
2021/05/01 02:57:30;;;;;;;35.92;29.13;;;;;;;6.09;76.27;99053.03;5015538;28;20026;-60
2021/05/01 03:00:01;;;;;;;35.60;29.52;;;;;;;6.01;76.71;99058.59;5015531;28;20400;-61
2021/05/01 03:02:27;;;;;;;35.38;29.15;;;;;;;5.83;77.45;99057.47;5015527;28;20050;-61
2021/05/01 03:04:52;;;;;;;36.50;27.60;;;;;;;5.84;77.06;99051.13;5015482;28;20092;-61
2021/05/01 03:07:18;;;;;;;34.45;28.88;;;;;;;5.85;76.99;99051.94;5014958;28;20061;-61
2021/05/01 03:09:43;;;;;;;33.85;28.85;;;;;;;5.69;77.56;99047.97;5015536;28;20468;-61
2021/05/01 03:12:09;;;;;;;32.67;27.70;;;;;;;5.65;77.48;99057.41;5015072;28;20034;-60
2021/05/01 03:14:34;;;;;;;35.90;27.92;;;;;;;5.65;77.47;99057.41;5015252;28;20040;-61
2021/05/01 03:16:59;;;;;;;33.42;27.77;;;;;;;5.65;77.42;99057.41;4997257;28;20048;-60
2021/05/01 03:19:25;;;;;;;33.22;28.02;;;;;;;5.66;78.03;99059.00;5015422;28;20408;-60
2021/05/01 03:21:50;;;;;;;32.65;27.73;;;;;;;5.79;76.99;99056.28;5014819;28;20037;-61
2021/05/01 03:24:16;;;;;;;39.97;29.90;;;;;;;5.67;77.48;99057.19;5015223;28;20465;-61
2021/05/01 03:26:41;;;;;;;35.13;29.25;;;;;;;5.58;77.66;99061.94;5014740;28;20045;-61
2021/05/01 03:29:06;;;;;;;35.20;29.58;;;;;;;5.50;77.57;99060.34;5015022;28;20026;-60
2021/05/01 03:31:33;;;;;;;39.55;29.50;;;;;;;5.45;77.73;99057.50;5014107;28;20046;-61
2021/05/01 03:33:58;;;;;;;36.85;29.30;;;;;;;5.44;77.69;99058.53;4997691;28;20049;-60
2021/05/01 03:36:24;;;;;;;33.58;28.65;;;;;;;5.31;78.22;99056.75;5014715;28;20041;-61
2021/05/01 03:38:49;;;;;;;36.88;28.98;;;;;;;5.26;78.36;99064.56;5015080;28;20029;-60
2021/05/01 03:41:14;;;;;;;35.70;30.55;;;;;;;5.28;78.27;99065.16;5014633;28;20092;-60
2021/05/01 03:43:40;;;;;;;36.22;28.85;;;;;;;5.27;78.64;99070.72;5014774;28;20391;-60
2021/05/01 03:46:05;;;;;;;35.35;29.10;;;;;;;5.17;79.03;99071.97;5014278;28;20104;-60
2021/05/01 03:48:31;;;;;;;39.38;29.85;;;;;;;5.08;78.63;99062.59;5014842;28;20076;-60
2021/05/01 03:50:56;;;;;;;36.70;30.40;;;;;;;5.02;79.02;99073.22;5014470;28;20116;-60
2021/05/01 03:53:22;;;;;;;34.83;29.42;;;;;;;5.05;79.13;99080.81;5014727;28;20034;-61
2021/05/01 03:55:48;;;;;;;34.80;29.77;;;;;;;4.97;79.26;99082.66;5014039;28;20055;-61
2021/05/01 03:58:13;;;;;;;37.13;30.48;;;;;;;4.88;79.78;99081.25;5014557;28;20112;-61
2021/05/01 04:00:39;;;;;;;37.45;29.80;;;;;;;4.96;78.85;99081.00;5013715;28;20041;-61
2021/05/01 04:03:04;;;;;;;36.55;31.17;;;;;;;4.92;79.54;99079.00;5014376;28;20056;-61
2021/05/01 04:05:30;;;;;;;41.65;32.55;;;;;;;4.93;79.49;99084.09;5012676;28;20034;-60
2021/05/01 04:07:55;;;;;;;36.33;29.77;;;;;;;4.89;79.15;99080.25;5014118;28;20057;-60
2021/05/01 04:10:21;;;;;;;39.20;31.58;;;;;;;4.84;79.79;99087.19;5013902;28;20417;-60
2021/05/01 04:12:46;;;;;;;39.47;31.08;;;;;;;4.87;79.53;99087.59;5014129;28;20030;-61
2021/05/01 04:15:12;;;;;;;38.13;30.17;;;;;;;4.76;80.04;99090.88;5013716;28;20022;-60
2021/05/01 04:17:37;;;;;;;37.20;30.65;;;;;;;4.81;79.73;99090.25;4996764;28;20030;-60
2021/05/01 04:20:04;;;;;;;37.90;30.25;;;;;;;4.81;79.95;99092.91;5013717;28;20629;-60
2021/05/01 04:22:30;;;;;;;42.55;31.30;;;;;;;4.81;79.72;99087.59;5014185;28;20424;-60
2021/05/01 04:24:55;;;;;;;39.60;31.05;;;;;;;4.82;80.04;99090.06;5014172;28;20034;-60
2021/05/01 04:27:20;;;;;;;39.65;31.40;;;;;;;4.83;79.81;99081.06;5013509;28;20038;-60
2021/05/01 04:29:46;;;;;;;40.03;30.83;;;;;;;4.87;79.50;99092.91;5014028;28;20468;-61
2021/05/01 04:32:11;;;;;;;37.55;30.88;;;;;;;4.75;79.98;99099.88;5013485;28;20042;-61
2021/05/01 04:34:37;;;;;;;37.40;31.33;;;;;;;4.74;80.03;99092.94;5013886;28;20034;-61
2021/05/01 04:37:02;;;;;;;37.20;30.88;;;;;;;4.72;79.68;99084.38;5013382;28;20041;-61
2021/05/01 04:39:28;;;;;;;36.95;29.05;;;;;;;4.68;80.96;99088.47;5013910;28;20030;-61
2021/05/01 04:41:53;;;;;;;38.30;31.35;;;;;;;4.65;80.57;99091.53;5013353;28;20042;-61
2021/05/01 04:44:20;;;;;;;40.58;31.38;;;;;;;4.54;80.74;99083.19;5014012;28;20025;-61
2021/05/01 04:46:51;;;;;;;39.75;32.25;;;;;;;4.60;81.07;99081.53;5012122;28;20080;-61
2021/05/01 04:49:17;;;;;;;40.58;31.85;;;;;;;4.71;80.59;99080.06;5013822;28;20026;-60
2021/05/01 04:51:42;;;;;;;43.70;31.88;;;;;;;4.83;80.06;99083.72;5013233;28;20117;-61
2021/05/01 04:54:07;;;;;;;42.65;32.55;;;;;;;4.98;79.17;99078.97;5012593;28;20029;-61
2021/05/01 04:56:33;;;;;;;41.90;31.90;;;;;;;5.07;78.96;99076.09;5012904;28;20038;-60
2021/05/01 04:58:59;;;;;;;39.42;31.00;;;;;;;5.05;79.38;99080.81;4995772;28;20117;-60
2021/05/01 05:01:24;;;;;;;36.63;31.17;;;;;;;5.24;78.61;99082.56;5013005;28;20060;-60
2021/05/01 05:03:51;;;;;;;41.40;33.25;;;;;;;5.14;79.29;99071.56;5013351;28;20034;-60
2021/05/01 05:06:17;;;;;;;38.90;31.90;;;;;;;5.40;78.52;99076.75;5012953;28;20066;-60
2021/05/01 05:08:42;;;;;;;41.97;33.80;;;;;;;5.55;77.43;99078.31;5013161;28;20124;-60
2021/05/01 05:11:07;;;;;;;43.00;32.83;;;;;;;5.58;77.66;99083.19;5011704;28;20045;-60
2021/05/01 05:13:33;;;;;;;42.63;33.17;;;;;;;5.74;76.85;99101.31;5013336;28;20037;-60
2021/05/01 05:15:58;;;;;;;40.70;31.08;;;;;;;5.88;76.02;99093.25;5012771;28;20037;-60
2021/05/01 05:18:24;;;;;;;40.70;31.67;;;;;;;5.76;76.53;99090.44;5012227;28;20142;-59
2021/05/01 05:20:49;;;;;;;41.90;31.33;;;;;;;5.93;76.24;99091.56;5012766;28;20038;-60
2021/05/01 05:23:15;;;;;;;41.10;32.17;;;;;;;5.98;75.70;99093.63;5013128;28;20032;-60
2021/05/01 05:25:40;;;;;;;34.78;27.75;;;;;;;6.53;73.16;99093.78;5012574;28;20049;-61
2021/05/01 05:28:05;;;;;;;36.38;29.05;;;;;;;6.74;72.91;99097.88;5013381;28;20037;-62
2021/05/01 05:30:31;;;;;;;34.15;27.35;;;;;;;7.03;72.20;99096.31;5012846;28;20049;-60
2021/05/01 05:32:57;;;;;;;33.88;29.27;;;;;;;7.62;68.77;99103.81;4995563;28;20473;-60
2021/05/01 05:35:22;;;;;;;33.13;28.42;;;;;;;7.62;68.83;99101.97;4995227;28;20512;-60
2021/05/01 05:37:48;;;;;;;36.47;29.88;;;;;;;6.96;70.38;99108.91;5013084;28;20034;-60
2021/05/01 05:40:13;;;;;;;35.75;29.00;;;;;;;7.15;70.73;99109.72;4995040;28;20396;-60
2021/05/01 05:42:41;;;;;;;35.47;27.90;;;;;;;7.07;70.26;99110.84;5013187;28;20068;-60
2021/05/01 05:45:07;;;;;;;33.63;28.40;;;;;;;6.74;71.58;99113.88;4995557;28;20054;-60
2021/05/01 05:47:33;;;;;;;36.25;30.10;;;;;;;6.95;71.09;99109.94;5012791;28;20112;-60
2021/05/01 05:49:58;;;;;;;37.58;29.58;;;;;;;6.96;70.84;99110.75;5012883;28;20038;-60
2021/05/01 05:52:24;;;;;;;35.95;30.20;;;;;;;6.90;70.82;99109.81;5012469;28;20034;-60
2021/05/01 05:54:49;;;;;;;35.47;29.80;;;;;;;6.93;71.67;99112.03;4996510;28;20032;-60
2021/05/01 05:57:15;;;;;;;38.67;30.25;;;;;;;7.02;70.99;99115.22;5015894;28;20034;-60
2021/05/01 05:59:41;;;;;;;33.88;28.27;;;;;;;6.84;71.77;99113.34;5016770;28;20529;-61
2021/05/01 06:02:06;;;;;;;37.13;31.00;;;;;;;6.28;73.75;99114.28;4982462;28;20076;-60
2021/05/01 06:05:01;;;;;;;39.30;32.10;;;;;;;6.61;72.95;99109.47;5015645;28;20033;-60
2021/05/01 06:07:27;;;;;;;36.28;30.63;;;;;;;6.77;71.82;99115.28;5014987;28;20164;-60
2021/05/01 06:09:53;;;;;;;37.75;32.35;;;;;;;6.88;71.87;99109.22;5016580;28;20040;-60
2021/05/01 06:12:20;;;;;;;37.80;30.60;;;;;;;6.94;71.57;99107.50;5014921;28;20038;-60
2021/05/01 06:14:46;;;;;;;34.53;30.13;;;;;;;7.23;70.67;99097.94;4982690;28;20025;-60
2021/05/01 06:17:12;;;;;;;35.03;28.58;;;;;;;7.26;69.63;99106.34;5015748;28;20511;-60
2021/05/01 06:19:41;;;;;;;39.45;29.80;;;;;;;7.04;70.69;99100.63;5016342;28;20049;-60
2021/05/01 06:22:07;;;;;;;36.88;30.88;;;;;;;6.67;71.70;99100.59;5015732;28;20069;-60
2021/05/01 06:24:32;;;;;;;36.45;28.83;;;;;;;6.89;72.84;99106.34;5016173;28;20096;-61
2021/05/01 06:26:57;;;;;;;33.03;28.55;;;;;;;7.08;70.60;99099.13;5015573;28;20123;-60
2021/05/01 06:29:24;;;;;;;35.60;29.95;;;;;;;6.86;72.44;99093.47;5015135;28;20033;-61
2021/05/01 06:31:50;;;;;;;37.40;32.25;;;;;;;6.44;71.64;99103.06;5015758;28;20058;-61
2021/05/01 06:34:15;;;;;;;34.95;30.10;;;;;;;6.92;71.81;99094.41;5016093;28;20018;-61
2021/05/01 06:36:40;;;;;;;37.70;31.30;;;;;;;6.85;71.47;99099.00;4997975;28;20042;-61
2021/05/01 06:39:06;;;;;;;35.63;28.20;;;;;;;7.22;69.70;99099.81;5014979;28;20400;-61
2021/05/01 06:41:52;;;;;;;38.88;29.85;;;;;;;6.87;71.40;99100.41;5015487;28;20062;-61
2021/05/01 06:44:18;;;;;;;40.22;28.90;;;;;;;7.25;69.53;99103.88;5016005;28;20088;-61
2021/05/01 06:46:46;;;;;;;34.22;27.40;;;;;;;7.24;68.29;99096.91;5015309;28;20046;-61
2021/05/01 06:49:33;;;;;;;32.90;26.52;;;;;;;7.26;69.07;99108.16;5016093;28;20478;-61
2021/05/01 06:52:01;;;;;;;32.70;27.88;;;;;;;6.77;69.71;99109.94;4997786;28;20508;-61
2021/05/01 06:54:27;;;;;;;31.60;26.02;;;;;;;7.13;68.63;99106.47;5015777;28;20026;-61
2021/05/01 06:56:52;;;;;;;36.25;28.52;;;;;;;7.11;68.92;99112.03;5015017;28;20108;-61
2021/05/01 06:59:18;;;;;;;34.75;28.42;;;;;;;7.22;67.62;99117.66;5014457;28;20037;-61
2021/05/01 07:01:44;;;;;;;32.90;27.08;;;;;;;7.07;68.20;99115.38;5015273;28;20084;-61
2021/05/01 07:04:10;;;;;;;33.17;28.17;;;;;;;7.28;67.64;99109.56;5014367;28;20045;-61
2021/05/01 07:06:36;;;;;;;32.63;27.33;;;;;;;7.15;67.85;99114.25;4996469;28;20038;-61
2021/05/01 07:09:02;;;;;;;35.25;27.63;;;;;;;7.49;68.27;99108.28;4997962;28;20041;-61
2021/05/01 07:11:28;;;;;;;36.03;28.08;;;;;;;7.46;69.12;99105.25;5013680;28;20810;-61
2021/05/01 07:13:54;;;;;;;32.10;27.23;;;;;;;7.39;67.20;99099.19;5015240;28;20042;-61
2021/05/01 07:16:19;;;;;;;32.38;27.67;;;;;;;7.57;67.10;99110.66;5013539;28;20055;-61
2021/05/01 07:18:45;;;;;;;32.03;26.38;;;;;;;7.69;65.91;99123.22;5014258;28;20041;-61
2021/05/01 07:21:11;;;;;;;30.90;26.92;;;;;;;7.62;65.77;99122.50;5013683;28;20469;-61
2021/05/01 07:23:37;;;;;;;31.00;25.92;;;;;;;7.76;64.65;99118.59;4997951;28;20026;-61
2021/05/01 07:26:03;;;;;;;31.77;26.13;;;;;;;7.75;64.87;99124.97;5014639;28;20038;-60
2021/05/01 07:28:30;;;;;;;30.98;26.08;;;;;;;7.82;64.63;99120.38;5014987;28;20030;-61
2021/05/01 07:30:56;;;;;;;31.95;27.73;;;;;;;7.82;65.11;99124.91;4997455;28;20045;-62
2021/05/01 07:33:27;;;;;;;35.35;27.80;;;;;;;7.66;66.37;99131.66;5014981;28;20033;-62
2021/05/01 07:35:58;;;;;;;30.83;26.77;;;;;;;7.56;65.94;99127.69;4997035;28;20030;-61
2021/05/01 07:38:25;;;;;;;30.27;25.25;;;;;;;7.59;64.63;99128.25;5014955;28;20037;-61
2021/05/01 07:40:53;;;;;;;31.38;26.35;;;;;;;7.51;66.42;99130.22;5014510;28;20323;-61
2021/05/01 07:43:21;;;;;;;32.90;25.92;;;;;;;7.75;64.96;99136.47;4997268;28;20030;-61
2021/05/01 07:45:47;;;;;;;35.45;27.80;;;;;;;7.67;64.78;99127.97;5014381;28;20108;-61
2021/05/01 07:48:14;;;;;;;31.10;27.17;;;;;;;7.72;64.70;99133.44;5014885;28;20022;-61
2021/05/01 07:50:39;;;;;;;36.13;27.42;;;;;;;7.77;65.87;99133.56;5013943;28;20035;-61
2021/05/01 07:53:05;;;;;;;33.85;26.95;;;;;;;7.90;64.50;99133.38;5014127;28;20084;-61
2021/05/01 07:55:30;;;;;;;31.55;26.73;;;;;;;8.32;62.99;99125.34;4996416;28;20050;-61
2021/05/01 07:57:56;;;;;;;31.55;26.58;;;;;;;8.37;62.08;99122.00;5013448;28;20026;-61
2021/05/01 08:00:21;;;;;;;33.78;25.75;;;;;;;8.39;62.61;99128.78;5014309;28;20038;-62
2021/05/01 08:02:47;;;;;;;30.80;26.05;;;;;;;9.15;59.98;99128.84;5013568;28;20109;-61
2021/05/01 08:05:13;;;;;;;28.73;24.52;;;;;;;8.87;60.22;99132.28;4996557;28;20026;-61
2021/05/01 08:07:39;;;;;;;28.65;25.10;;;;;;;9.32;59.02;99125.47;5014427;28;20050;-61
2021/05/01 08:10:05;;;;;;;30.55;25.20;;;;;;;9.13;59.37;99125.59;5013946;28;20373;-61
2021/05/01 08:12:31;;;;;;;33.95;26.42;;;;;;;9.05;60.38;99123.28;5014480;28;20025;-61
2021/05/01 08:14:56;;;;;;;33.63;26.13;;;;;;;8.89;60.62;99124.03;5014312;28;20053;-61
2021/05/01 08:17:21;;;;;;;31.08;26.67;;;;;;;9.14;59.54;99129.91;5012740;28;20049;-62
2021/05/01 08:19:47;;;;;;;30.35;26.40;;;;;;;8.66;59.84;99122.97;5013744;28;20341;-63
2021/05/01 08:22:12;;;;;;;30.38;24.85;;;;;;;8.76;59.88;99119.72;5013447;28;20477;-61
2021/05/01 08:24:38;;;;;;;28.77;25.20;;;;;;;8.92;59.55;99119.00;5014147;28;20511;-62
2021/05/01 08:27:03;;;;;;;31.25;26.88;;;;;;;8.70;59.71;99110.78;5013653;28;20342;-62
2021/05/01 08:29:29;;;;;;;29.73;25.17;;;;;;;9.61;58.00;99112.91;5013969;28;20022;-62
2021/05/01 08:31:54;;;;;;;31.52;25.52;;;;;;;10.03;56.58;99112.59;5013677;28;20044;-62
2021/05/01 08:34:20;;;;;;;28.45;23.98;;;;;;;10.15;55.15;99122.19;5014166;28;20380;-62
2021/05/01 08:36:45;;;;;;;25.83;22.73;;;;;;;10.42;52.56;99121.59;5013478;28;20038;-62
2021/05/01 08:39:11;;;;;;;29.67;23.30;;;;;;;10.20;54.21;99128.69;5013847;28;20018;-62
2021/05/01 08:41:39;;;;;;;26.13;23.35;;;;;;;10.92;51.46;99131.44;5013429;28;20038;-63
2021/05/01 08:44:08;;;;;;;27.23;23.90;;;;;;;10.60;53.16;99133.09;5014003;28;20050;-62
2021/05/01 08:46:35;;;;;;;29.23;25.42;;;;;;;9.59;56.18;99139.09;5013510;28;20060;-62
2021/05/01 08:49:01;;;;;;;28.63;23.42;;;;;;;9.88;55.29;99131.88;4996289;28;20027;-62
2021/05/01 08:51:27;;;;;;;28.17;24.10;;;;;;;10.77;53.11;99139.28;5013329;28;20029;-62
2021/05/01 08:53:52;;;;;;;30.88;24.98;;;;;;;10.73;52.56;99132.75;4996104;28;20488;-62
2021/05/01 08:56:18;;;;;;;30.50;24.00;;;;;;;10.02;54.18;99138.56;5012119;28;20419;-62
2021/05/01 08:58:44;;;;;;;28.40;24.73;;;;;;;9.53;56.28;99135.50;5013862;28;20084;-62
2021/05/01 09:01:12;;;;;;;27.02;23.58;;;;;;;11.19;51.44;99133.41;5013062;28;20034;-62
2021/05/01 09:03:38;;;;;;;27.88;22.13;;;;;;;11.99;49.58;99131.13;5012433;28;20392;-62
2021/05/01 09:06:04;;;;;;;27.17;22.10;;;;;;;12.00;47.80;99138.09;5012966;28;20034;-62
2021/05/01 09:08:29;;;;;;;27.52;22.38;;;;;;;10.81;51.58;99140.41;4995652;28;20084;-62
2021/05/01 09:10:55;;;;;;;29.13;22.33;;;;;;;10.73;51.79;99146.16;4995495;28;20045;-62
2021/05/01 09:13:21;;;;;;;29.58;24.08;;;;;;;10.88;52.17;99150.94;5013537;28;20030;-62
2021/05/01 09:15:58;;;;;;;26.40;23.10;;;;;;;10.72;52.32;99148.03;5012977;28;20046;-62
2021/05/01 09:18:24;;;;;;;29.02;23.92;;;;;;;11.06;50.46;99152.53;4994773;28;20532;-62
2021/05/01 09:20:50;;;;;;;29.40;22.80;;;;;;;11.07;51.63;99148.81;5010657;28;20048;-62
2021/05/01 09:23:17;;;;;;;27.52;22.95;;;;;;;10.49;52.15;99154.38;5011705;28;20028;-64
2021/05/01 09:25:59;;;;;;;25.00;21.88;;;;;;;10.48;51.60;99152.78;5011297;28;20034;-63
2021/05/01 09:28:26;;;;;;;25.42;22.02;;;;;;;10.75;51.76;99157.47;5011964;28;20025;-63
2021/05/01 09:31:05;;;;;;;23.90;21.30;;;;;;;10.62;51.12;99155.13;5012119;28;20045;-62
2021/05/01 09:33:35;;;;;;;29.00;21.35;;;;;;;10.78;50.73;99151.59;5011878;28;20472;-61
2021/05/01 09:36:03;;;;;;;24.75;22.10;;;;;;;10.93;50.25;99149.16;5012803;28;20108;-62
2021/05/01 09:38:30;;;;;;;27.90;22.58;;;;;;;10.51;51.06;99136.22;4995740;28;20129;-62
2021/05/01 09:40:55;;;;;;;27.60;22.15;;;;;;;11.03;49.61;99140.44;5012860;28;20053;-61
2021/05/01 09:43:21;;;;;;;25.13;21.50;;;;;;;11.33;48.21;99136.53;5013378;28;20472;-63
2021/05/01 09:45:46;;;;;;;24.25;20.80;;;;;;;11.32;48.58;99126.88;5012683;28;20511;-63
2021/05/01 09:48:21;;;;;;;25.70;22.27;;;;;;;11.00;48.50;99128.31;4995473;28;20365;-63
2021/05/01 09:50:49;;;;;;;25.48;21.05;;;;;;;10.95;49.60;99125.56;5012617;28;20034;-63
2021/05/01 09:53:17;;;;;;;25.48;21.42;;;;;;;11.34;47.53;99117.50;4995373;28;20026;-61
2021/05/01 09:55:54;;;;;;;24.63;20.63;;;;;;;12.00;45.93;99119.31;5012458;28;20117;-63
2021/05/01 09:58:20;;;;;;;26.45;21.23;;;;;;;11.20;48.46;99122.41;5012866;28;20050;-63
2021/05/01 10:00:47;;;;;;;26.75;21.92;;;;;;;11.07;49.07;99122.78;5011256;28;20045;-63
2021/05/01 10:03:19;;;;;;;25.50;22.80;;;;;;;11.07;49.50;99127.34;5012050;28;20029;-63
2021/05/01 10:05:46;;;;;;;25.70;21.75;;;;;;;11.54;48.31;99121.50;4994954;28;20534;-63
2021/05/01 10:08:12;;;;;;;27.20;21.27;;;;;;;11.61;47.28;99124.81;4992028;28;20150;-62
2021/05/01 10:10:39;;;;;;;25.45;21.40;;;;;;;11.43;47.69;99126.75;5007875;28;20049;-63
2021/05/01 10:13:05;;;;;;;28.08;23.38;;;;;;;11.44;48.36;99128.34;4993279;28;20057;-63
2021/05/01 10:15:31;;;;;;;23.75;21.25;;;;;;;11.62;48.28;99126.41;4992830;28;20120;-63
2021/05/01 10:18:13;;;;;;;24.70;21.90;;;;;;;12.22;45.98;99111.97;4993379;28;20409;-63
2021/05/01 10:20:43;;;;;;;29.63;22.52;;;;;;;11.80;47.11;99126.06;4992710;28;20069;-62
2021/05/01 10:23:09;;;;;;;26.52;21.98;;;;;;;12.10;46.22;99108.66;4993225;28;20027;-63
2021/05/01 10:25:34;;;;;;;25.23;21.67;;;;;;;11.40;47.79;99118.38;4992741;28;20377;-63
2021/05/01 10:28:06;;;;;;;28.73;22.02;;;;;;;10.51;49.80;99122.81;4993269;28;20018;-63
2021/05/01 10:30:37;;;;;;;26.33;21.98;;;;;;;11.00;47.59;99124.84;4992952;28;20143;-63
2021/05/01 10:33:23;;;;;;;24.75;20.23;;;;;;;12.14;46.18;99114.34;4993029;28;20435;-63
2021/05/01 10:35:48;;;;;;;24.52;20.33;;;;;;;12.26;44.56;99115.78;4992630;28;20096;-62
2021/05/01 10:38:15;;;;;;;28.25;20.02;;;;;;;12.30;43.13;99111.53;4993147;28;20520;-62
2021/05/01 10:40:42;;;;;;;23.77;18.83;;;;;;;11.84;44.00;99104.91;4992446;28;20548;-64
2021/05/01 10:43:12;;;;;;;26.50;21.58;;;;;;;11.18;45.35;99108.47;4996993;28;20023;-63
2021/05/01 10:45:37;;;;;;;23.70;20.63;;;;;;;11.68;45.90;99111.16;4996216;28;20031;-64
2021/05/01 10:48:07;;;;;;;25.52;20.80;;;;;;;12.63;42.85;99112.31;4996490;28;20026;-63
2021/05/01 10:50:36;;;;;;;22.83;20.20;;;;;;;12.89;42.67;99120.53;4996078;28;20066;-64
2021/05/01 10:53:04;;;;;;;21.65;18.52;;;;;;;13.47;40.50;99126.75;4996327;28;20547;-62
2021/05/01 10:55:42;;;;;;;21.13;18.85;;;;;;;14.48;39.10;99139.84;5010770;28;20045;-63
2021/05/01 10:58:08;;;;;;;23.25;19.85;;;;;;;14.13;39.47;99130.69;4996502;28;20114;-64
2021/05/01 11:00:41;;;;;;;22.25;19.13;;;;;;;14.32;38.93;99117.50;4994919;28;20062;-63
2021/05/01 11:03:06;;;;;;;22.08;18.92;;;;;;;13.21;42.47;99123.13;4994615;28;20106;-62
2021/05/01 11:05:32;;;;;;;23.90;19.13;;;;;;;12.99;41.01;99104.44;4994546;28;20039;-62
2021/05/01 11:08:07;;;;;;;20.63;17.63;;;;;;;11.96;41.25;99112.84;5004425;28;20045;-62
2021/05/01 11:10:33;;;;;;;21.70;19.00;;;;;;;12.36;41.60;99096.25;5015129;28;20038;-62
2021/05/01 11:12:58;;;;;;;21.25;18.20;;;;;;;13.32;40.21;99107.84;4998230;28;20033;-62
2021/05/01 11:15:25;;;;;;;19.33;15.50;;;;;;;11.71;38.49;99113.38;4981467;28;20487;-62
2021/05/01 11:18:10;;;;;;;18.13;16.25;;;;;;;13.08;38.42;99110.13;5015339;28;20026;-62
2021/05/01 11:20:36;;;;;;;22.33;17.52;;;;;;;12.71;40.32;99103.75;4980769;28;20072;-61
2021/05/01 11:23:01;;;;;;;22.98;17.55;;;;;;;12.47;41.15;99110.56;4997738;28;20026;-61